Wetterdaten: Woche 28.10.13 - 03.11.13 (KW44)
Datum Zeit Temp. Aussen +5cm Feuchte Auss Luftdruck Regen Sonnenschein Regendauer UV Solar Windben
28.10.2013 00:00 13,9 C 11,7 C 84 % 1003,0 hPa 0,4 l/m 0,00 h 0,87 h 0,0 UV-I 0 W/m 20,6 km/h (4 Bft)
28.10.2013 01:00 12,9 C 11,1 C 92 % 1001,6 hPa 1,8 l/m 0,00 h 0,97 h 0,0 UV-I 0 W/m 16,0 km/h (3 Bft)
28.10.2013 02:00 13,1 C 11,6 C 96 % 1000,1 hPa 0,6 l/m 0,00 h 0,93 h 0,0 UV-I 0 W/m 19,3 km/h (3 Bft)
28.10.2013 03:00 13,8 C 11,7 C 93 % 998,5 hPa 0,8 l/m 0,00 h 0,70 h 0,0 UV-I 0 W/m 19,4 km/h (3 Bft)
28.10.2013 04:00 13,8 C 11,8 C 94 % 996,6 hPa 0,0 l/m 0,00 h 0,33 h 0,0 UV-I 0 W/m 21,7 km/h (4 Bft)
28.10.2013 05:00 15,4 C 12,6 C 83 % 995,2 hPa 0,0 l/m 0,00 h 0,00 h 0,0 UV-I 0 W/m 30,7 km/h (5 Bft)
28.10.2013 06:00 15,9 C 12,9 C 78 % 994,2 hPa 0,2 l/m 0,00 h 0,47 h 0,0 UV-I 0 W/m 34,0 km/h (5 Bft)
28.10.2013 07:00 15,9 C 13,0 C 78 % 993,9 hPa 0,4 l/m 0,00 h 0,93 h 0,0 UV-I 6 W/m 38,9 km/h (5 Bft)
28.10.2013 08:00 15,6 C 13,4 C 82 % 993,4 hPa 0,0 l/m 0,00 h 0,50 h 0,0 UV-I 32 W/m 37,4 km/h (5 Bft)
28.10.2013 09:00 16,6 C 14,9 C 78 % 992,7 hPa 0,0 l/m 0,47 h 0,13 h 0,0 UV-I 167 W/m 41,6 km/h (6 Bft)
28.10.2013 10:00 17,1 C 15,5 C 78 % 992,9 hPa 0,0 l/m 0,10 h 0,03 h 0,5 UV-I 153 W/m 46,5 km/h (6 Bft)
28.10.2013 11:00 17,0 C 15,5 C 79 % 994,0 hPa 0,0 l/m 0,07 h 0,27 h 0,6 UV-I 170 W/m 48,5 km/h (6 Bft)
28.10.2013 12:00 15,2 C 12,8 C 88 % 995,6 hPa 0,4 l/m 0,00 h 0,50 h 0,5 UV-I 123 W/m 29,2 km/h (5 Bft)
28.10.2013 13:00 16,7 C 15,3 C 79 % 996,5 hPa 0,0 l/m 0,70 h 0,00 h 0,8 UV-I 354 W/m 27,0 km/h (4 Bft)
28.10.2013 14:00 17,5 C 15,7 C 69 % 997,2 hPa 0,0 l/m 0,53 h 0,00 h 0,6 UV-I 244 W/m 29,0 km/h (5 Bft)
28.10.2013 15:00 16,1 C 14,3 C 68 % 998,7 hPa 0,0 l/m 0,17 h 0,00 h 0,0 UV-I 104 W/m 32,5 km/h (5 Bft)
28.10.2013 16:00 15,2 C 13,4 C 71 % 999,8 hPa 0,0 l/m 0,00 h 0,00 h 0,0 UV-I 39 W/m 24,0 km/h (4 Bft)
28.10.2013 17:00 14,1 C 12,1 C 74 % 1001,1 hPa 0,0 l/m 0,00 h 0,10 h 0,0 UV-I 7 W/m 22,1 km/h (4 Bft)
28.10.2013 18:00 13,1 C 11,4 C 78 % 1002,3 hPa 0,0 l/m 0,00 h 0,13 h 0,0 UV-I 0 W/m 11,2 km/h (2 Bft)
28.10.2013 19:00 13,3 C 11,7 C 74 % 1003,0 hPa 0,0 l/m 0,00 h 0,00 h 0,0 UV-I 0 W/m 18,4 km/h (3 Bft)
28.10.2013 20:00 13,0 C 11,1 C 74 % 1003,6 hPa 0,0 l/m 0,00 h 0,00 h 0,0 UV-I 0 W/m 19,3 km/h (3 Bft)
28.10.2013 21:00 12,8 C 11,0 C 73 % 1004,3 hPa 0,0 l/m 0,00 h 0,00 h 0,0 UV-I 0 W/m 20,2 km/h (4 Bft)
28.10.2013 22:00 12,1 C 10,5 C 75 % 1005,2 hPa 0,0 l/m 0,00 h 0,00 h 0,0 UV-I 0 W/m 21,0 km/h (4 Bft)
28.10.2013 23:00 11,6 C 10,0 C 78 % 1005,6 hPa 0,0 l/m 0,00 h 0,00 h 0,0 UV-I 0 W/m 15,4 km/h (3 Bft)
29.10.2013 00:00 11,3 C 9,8 C 80 % 1006,1 hPa 0,0 l/m 0,00 h 0,00 h 0,0 UV-I 0 W/m 13,9 km/h (3 Bft)
29.10.2013 01:00 11,1 C 9,4 C 79 % 1006,2 hPa 0,0 l/m 0,00 h 0,00 h 0,0 UV-I 0 W/m 16,7 km/h (3 Bft)
29.10.2013 02:00 10,9 C 9,4 C 79 % 1006,1 hPa 0,0 l/m 0,00 h 0,00 h 0,0 UV-I 0 W/m 17,6 km/h (3 Bft)
29.10.2013 03:00 10,5 C 8,9 C 80 % 1006,4 hPa 0,0 l/m 0,00 h 0,00 h 0,0 UV-I 0 W/m 17,2 km/h (3 Bft)
29.10.2013 04:00 10,3 C 8,9 C 80 % 1006,6 hPa 0,0 l/m 0,00 h 0,00 h 0,0 UV-I 0 W/m 17,7 km/h (3 Bft)
29.10.2013 05:00 10,0 C 8,5 C 83 % 1007,0 hPa 0,0 l/m 0,00 h 0,00 h 0,0 UV-I 0 W/m 15,9 km/h (3 Bft)
29.10.2013 06:00 9,8 C 8,3 C 83 % 1007,4 hPa 0,0 l/m 0,00 h 0,00 h 0,0 UV-I 0 W/m 20,4 km/h (4 Bft)
29.10.2013 07:00 10,3 C 9,1 C 82 % 1008,2 hPa 0,0 l/m 0,00 h 0,00 h 0,0 UV-I 9 W/m 19,8 km/h (3 Bft)
29.10.2013 08:00 10,7 C 9,7 C 81 % 1009,3 hPa 0,0 l/m 0,00 h 0,00 h 0,0 UV-I 34 W/m 17,8 km/h (3 Bft)
29.10.2013 09:00 10,9 C 10,1 C 81 % 1010,3 hPa 0,0 l/m 0,07 h 0,00 h 0,0 UV-I 95 W/m 17,7 km/h (3 Bft)
29.10.2013 10:00 11,9 C 11,0 C 78 % 1011,0 hPa 0,0 l/m 0,30 h 0,00 h 0,5 UV-I 215 W/m 18,0 km/h (3 Bft)
29.10.2013 11:00 12,9 C 11,9 C 75 % 1011,6 hPa 0,0 l/m 0,80 h 0,00 h 0,6 UV-I 366 W/m 20,8 km/h (4 Bft)
29.10.2013 12:00 13,2 C 12,3 C 73 % 1011,8 hPa 0,0 l/m 0,27 h 0,00 h 0,7 UV-I 234 W/m 20,7 km/h (4 Bft)
29.10.2013 13:00 13,1 C 12,1 C 73 % 1011,9 hPa 0,0 l/m 0,33 h 0,00 h 0,7 UV-I 214 W/m 18,2 km/h (3 Bft)
29.10.2013 14:00 13,0 C 12,1 C 74 % 1012,1 hPa 0,0 l/m 0,33 h 0,00 h 0,0 UV-I 196 W/m 18,5 km/h (3 Bft)
29.10.2013 15:00 12,3 C 10,9 C 78 % 1012,3 hPa 0,0 l/m 0,00 h 0,40 h 0,0 UV-I 43 W/m 15,7 km/h (3 Bft)
29.10.2013 16:00 11,4 C 9,5 C 83 % 1012,7 hPa 0,4 l/m 0,00 h 0,53 h 0,0 UV-I 14 W/m 6,0 km/h (2 Bft)
29.10.2013 17:00 10,8 C 8,2 C 83 % 1013,0 hPa 0,0 l/m 0,00 h 0,17 h 0,0 UV-I 5 W/m 10,5 km/h (2 Bft)
29.10.2013 18:00 9,7 C 7,7 C 86 % 1013,5 hPa 0,0 l/m 0,00 h 0,10 h 0,0 UV-I 0 W/m 11,3 km/h (2 Bft)
29.10.2013 19:00 8,6 C 7,2 C 89 % 1014,1 hPa 0,0 l/m 0,00 h 0,00 h 0,0 UV-I 0 W/m 8,3 km/h (2 Bft)
29.10.2013 20:00 8,5 C 7,2 C 90 % 1014,8 hPa 0,0 l/m 0,00 h 0,00 h 0,0 UV-I 0 W/m 7,7 km/h (2 Bft)
29.10.2013 21:00 8,4 C 7,2 C 90 % 1015,4 hPa 0,0 l/m 0,00 h 0,00 h 0,0 UV-I 0 W/m 8,1 km/h (2 Bft)
29.10.2013 22:00 8,6 C 7,5 C 89 % 1016,0 hPa 0,0 l/m 0,00 h 0,00 h 0,0 UV-I 0 W/m 6,7 km/h (2 Bft)
29.10.2013 23:00 8,1 C 6,9 C 91 % 1016,5 hPa 0,0 l/m 0,00 h 0,00 h 0,0 UV-I 0 W/m 4,9 km/h (1 Bft)
30.10.2013 00:00 8,0 C 6,9 C 92 % 1016,9 hPa 0,0 l/m 0,00 h 0,00 h 0,0 UV-I 0 W/m 4,6 km/h (1 Bft)
30.10.2013 01:00 7,5 C 6,3 C 93 % 1017,4 hPa 0,0 l/m 0,00 h 0,00 h 0,0 UV-I 0 W/m 2,2 km/h (1 Bft)
30.10.2013 02:00 7,3 C 6,1 C 94 % 1017,9 hPa 0,0 l/m 0,00 h 0,00 h 0,0 UV-I 0 W/m 5,8 km/h (1 Bft)
30.10.2013 03:00 7,4 C 6,3 C 93 % 1018,3 hPa 0,0 l/m 0,00 h 0,00 h 0,0 UV-I 0 W/m 5,5 km/h (1 Bft)
30.10.2013 04:00 7,1 C 5,9 C 91 % 1018,8 hPa 0,0 l/m 0,00 h 0,00 h 0,0 UV-I 0 W/m 5,9 km/h (2 Bft)
30.10.2013 05:00 6,7 C 5,6 C 92 % 1019,3 hPa 0,0 l/m 0,00 h 0,00 h 0,0 UV-I 0 W/m 3,6 km/h (1 Bft)
30.10.2013 06:00 6,5 C 5,5 C 92 % 1019,8 hPa 0,0 l/m 0,00 h 0,00 h 0,0 UV-I 0 W/m 4,5 km/h (1 Bft)
30.10.2013 07:00 6,3 C 5,0 C 91 % 1020,6 hPa 0,0 l/m 0,00 h 0,00 h 0,0 UV-I 11 W/m 6,0 km/h (2 Bft)
30.10.2013 08:00 6,6 C 5,6 C 91 % 1021,6 hPa 0,0 l/m 0,17 h 0,00 h 0,0 UV-I 48 W/m 4,6 km/h (1 Bft)
30.10.2013 09:00 8,1 C 6,9 C 88 % 1022,4 hPa 0,0 l/m 0,97 h 0,00 h 0,0 UV-I 194 W/m 8,5 km/h (2 Bft)
30.10.2013 10:00 9,8 C 8,3 C 84 % 1022,8 hPa 0,0 l/m 1,00 h 0,00 h 0,5 UV-I 295 W/m 8,6 km/h (2 Bft)
30.10.2013 11:00 11,1 C 9,8 C 80 % 1023,2 hPa 0,0 l/m 1,00 h 0,00 h 0,5 UV-I 357 W/m 11,1 km/h (2 Bft)
30.10.2013 12:00 12,1 C 11,0 C 76 % 1023,2 hPa 0,0 l/m 0,90 h 0,00 h 0,7 UV-I 376 W/m 10,1 km/h (2 Bft)
30.10.2013 13:00 12,6 C 11,4 C 72 % 1023,2 hPa 0,0 l/m 0,97 h 0,00 h 0,6 UV-I 356 W/m 9,4 km/h (2 Bft)
30.10.2013 14:00 12,7 C 11,5 C 71 % 1023,1 hPa 0,0 l/m 0,57 h 0,00 h 0,5 UV-I 221 W/m 6,5 km/h (2 Bft)
30.10.2013 15:00 11,8 C 10,1 C 73 % 1023,2 hPa 0,0 l/m 0,37 h 0,00 h 0,0 UV-I 95 W/m 1,7 km/h (1 Bft)
30.10.2013 16:00 11,0 C 9,2 C 75 % 1023,4 hPa 0,0 l/m 0,00 h 0,00 h 0,0 UV-I 26 W/m 0,3 km/h (0 Bft)
30.10.2013 17:00 10,0 C 7,7 C 78 % 1023,7 hPa 0,0 l/m 0,00 h 0,00 h 0,0 UV-I 6 W/m 0,3 km/h (0 Bft)
30.10.2013 18:00 9,1 C 6,9 C 81 % 1024,2 hPa 0,0 l/m 0,00 h 0,00 h 0,0 UV-I 0 W/m 0,5 km/h (0 Bft)
30.10.2013 19:00 7,8 C 5,4 C 86 % 1024,4 hPa 0,0 l/m 0,00 h 0,00 h 0,0 UV-I 0 W/m 0,1 km/h (0 Bft)
30.10.2013 20:00 7,6 C 5,5 C 87 % 1024,6 hPa 0,0 l/m 0,00 h 0,00 h 0,0 UV-I 0 W/m 0,5 km/h (0 Bft)
30.10.2013 21:00 7,9 C 6,2 C 85 % 1025,0 hPa 0,0 l/m 0,00 h 0,00 h 0,0 UV-I 0 W/m 4,0 km/h (1 Bft)
30.10.2013 22:00 7,4 C 5,8 C 87 % 1025,2 hPa 0,0 l/m 0,00 h 0,00 h 0,0 UV-I 0 W/m 1,1 km/h (1 Bft)
30.10.2013 23:00 6,8 C 5,2 C 89 % 1025,2 hPa 0,0 l/m 0,00 h 0,00 h 0,0 UV-I 0 W/m 1,0 km/h (0 Bft)
31.10.2013 00:00 6,0 C 4,4 C 91 % 1025,4 hPa 0,0 l/m 0,00 h 0,00 h 0,0 UV-I 0 W/m 0,6 km/h (0 Bft)
31.10.2013 01:00 5,1 C 3,7 C 93 % 1025,2 hPa 0,0 l/m 0,00 h 0,00 h 0,0 UV-I 0 W/m 2,0 km/h (1 Bft)
31.10.2013 02:00 4,2 C 3,2 C 94 % 1024,9 hPa 0,0 l/m 0,00 h 0,00 h 0,0 UV-I 0 W/m 4,3 km/h (1 Bft)
31.10.2013 03:00 3,9 C 2,8 C 95 % 1024,6 hPa 0,0 l/m 0,00 h 0,00 h 0,0 UV-I 0 W/m 6,0 km/h (2 Bft)
31.10.2013 04:00 3,6 C 2,7 C 96 % 1024,4 hPa 0,0 l/m 0,00 h 0,00 h 0,0 UV-I 0 W/m 1,7 km/h (1 Bft)
31.10.2013 05:00 3,4 C 2,2 C 96 % 1024,3 hPa 0,0 l/m 0,00 h 0,00 h 0,0 UV-I 0 W/m 3,3 km/h (1 Bft)
31.10.2013 06:00 3,4 C 2,2 C 97 % 1024,0 hPa 0,0 l/m 0,00 h 0,00 h 0,0 UV-I 0 W/m 5,9 km/h (2 Bft)
31.10.2013 07:00 3,3 C 2,4 C 97 % 1024,0 hPa 0,0 l/m 0,00 h 0,00 h 0,0 UV-I 14 W/m 7,5 km/h (2 Bft)
31.10.2013 08:00 4,2 C 3,5 C 97 % 1024,1 hPa 0,0 l/m 0,20 h 0,00 h 0,0 UV-I 60 W/m 6,4 km/h (2 Bft)
31.10.2013 09:00 7,3 C 6,1 C 93 % 1023,9 hPa 0,0 l/m 0,90 h 0,00 h 0,0 UV-I 194 W/m 11,1 km/h (2 Bft)
31.10.2013 10:00 10,1 C 8,7 C 83 % 1023,6 hPa 0,0 l/m 0,90 h 0,00 h 0,5 UV-I 248 W/m 11,0 km/h (2 Bft)
31.10.2013 11:00 11,9 C 10,5 C 77 % 1023,1 hPa 0,0 l/m 0,73 h 0,00 h 0,5 UV-I 274 W/m 15,4 km/h (3 Bft)
31.10.2013 12:00 13,1 C 11,9 C 71 % 1022,5 hPa 0,0 l/m 0,93 h 0,00 h 0,6 UV-I 334 W/m 13,7 km/h (3 Bft)
31.10.2013 13:00 13,9 C 12,3 C 67 % 1022,0 hPa 0,0 l/m 1,00 h 0,00 h 0,5 UV-I 330 W/m 16,0 km/h (3 Bft)
31.10.2013 14:00 14,0 C 12,4 C 66 % 1021,1 hPa 0,0 l/m 0,73 h 0,00 h 0,5 UV-I 235 W/m 12,8 km/h (3 Bft)
31.10.2013 15:00 13,4 C 11,7 C 68 % 1020,3 hPa 0,0 l/m 0,43 h 0,00 h 0,0 UV-I 119 W/m 11,4 km/h (2 Bft)
31.10.2013 16:00 12,3 C 10,5 C 73 % 1019,9 hPa 0,0 l/m 0,00 h 0,00 h 0,0 UV-I 24 W/m 6,3 km/h (2 Bft)
31.10.2013 17:00 11,5 C 9,6 C 76 % 1019,9 hPa 0,0 l/m 0,00 h 0,00 h 0,0 UV-I 5 W/m 4,5 km/h (1 Bft)
31.10.2013 18:00 10,9 C 9,2 C 77 % 1019,7 hPa 0,0 l/m 0,00 h 0,00 h 0,0 UV-I 0 W/m 6,9 km/h (2 Bft)
31.10.2013 19:00 10,5 C 8,8 C 77 % 1019,3 hPa 0,0 l/m 0,00 h 0,00 h 0,0 UV-I 0 W/m 8,6 km/h (2 Bft)
31.10.2013 20:00 10,7 C 9,3 C 76 % 1019,0 hPa 0,0 l/m 0,00 h 0,00 h 0,0 UV-I 0 W/m 9,2 km/h (2 Bft)
31.10.2013 21:00 10,9 C 9,4 C 76 % 1018,9 hPa 0,0 l/m 0,00 h 0,00 h 0,0 UV-I 0 W/m 10,6 km/h (2 Bft)
31.10.2013 22:00 11,2 C 10,0 C 79 % 1018,8 hPa 0,0 l/m 0,00 h 0,00 h 0,0 UV-I 0 W/m 13,6 km/h (3 Bft)
31.10.2013 23:00 11,2 C 9,9 C 80 % 1018,8 hPa 0,0 l/m 0,00 h 0,00 h 0,0 UV-I 0 W/m 12,4 km/h (3 Bft)
01.11.2013 00:00 11,0 C 9,4 C 81 % 1018,6 hPa 0,0 l/m 0,00 h 0,30 h 0,0 UV-I 0 W/m 12,9 km/h (3 Bft)
01.11.2013 01:00 10,3 C 8,1 C 86 % 1018,5 hPa 0,0 l/m 0,00 h 0,83 h 0,0 UV-I 0 W/m 7,6 km/h (2 Bft)
01.11.2013 02:00 10,1 C 7,8 C 88 % 1018,0 hPa 0,0 l/m 0,00 h 0,00 h 0,0 UV-I 0 W/m 6,3 km/h (2 Bft)
01.11.2013 03:00 10,3 C 8,8 C 86 % 1017,4 hPa 0,0 l/m 0,00 h 0,00 h 0,0 UV-I 0 W/m 11,0 km/h (2 Bft)
01.11.2013 04:00 10,4 C 8,9 C 86 % 1017,0 hPa 0,0 l/m 0,00 h 0,00 h 0,0 UV-I 0 W/m 6,1 km/h (2 Bft)
01.11.2013 05:00 10,3 C 8,9 C 87 % 1016,6 hPa 0,0 l/m 0,00 h 0,00 h 0,0 UV-I 0 W/m 4,3 km/h (1 Bft)
01.11.2013 06:00 10,4 C 9,4 C 88 % 1016,4 hPa 0,0 l/m 0,00 h 0,00 h 0,0 UV-I 0 W/m 6,6 km/h (2 Bft)
01.11.2013 07:00 10,3 C 9,0 C 90 % 1016,5 hPa 0,0 l/m 0,00 h 0,00 h 0,0 UV-I 7 W/m 6,0 km/h (2 Bft)
01.11.2013 08:00 10,3 C 9,2 C 89 % 1016,5 hPa 0,2 l/m 0,00 h 0,10 h 0,0 UV-I 29 W/m 3,9 km/h (1 Bft)
01.11.2013 09:00 10,8 C 9,8 C 87 % 1016,5 hPa 0,0 l/m 0,00 h 0,00 h 0,0 UV-I 55 W/m 10,1 km/h (2 Bft)
01.11.2013 10:00 11,4 C 10,7 C 87 % 1016,3 hPa 0,0 l/m 0,00 h 0,30 h 0,0 UV-I 112 W/m 11,8 km/h (2 Bft)
01.11.2013 11:00 11,6 C 10,8 C 87 % 1015,8 hPa 0,0 l/m 0,00 h 0,13 h 0,0 UV-I 83 W/m 7,3 km/h (2 Bft)
01.11.2013 12:00 11,7 C 11,1 C 89 % 1015,4 hPa 0,0 l/m 0,00 h 0,37 h 0,0 UV-I 131 W/m 7,8 km/h (2 Bft)
01.11.2013 13:00 12,3 C 11,9 C 87 % 1014,6 hPa 0,0 l/m 0,00 h 0,00 h 0,0 UV-I 159 W/m 13,5 km/h (3 Bft)
01.11.2013 14:00 12,4 C 11,5 C 86 % 1013,8 hPa 0,0 l/m 0,00 h 0,00 h 0,0 UV-I 98 W/m 10,8 km/h (2 Bft)
01.11.2013 15:00 12,2 C 11,4 C 87 % 1013,2 hPa 0,0 l/m 0,00 h 0,00 h 0,0 UV-I 72 W/m 6,8 km/h (2 Bft)
01.11.2013 16:00 11,7 C 10,7 C 88 % 1012,4 hPa 0,0 l/m 0,00 h 0,00 h 0,0 UV-I 25 W/m 6,0 km/h (2 Bft)
01.11.2013 17:00 11,4 C 10,0 C 89 % 1011,9 hPa 0,0 l/m 0,00 h 0,00 h 0,0 UV-I 0 W/m 6,5 km/h (2 Bft)
01.11.2013 18:00 11,2 C 9,6 C 89 % 1011,5 hPa 0,0 l/m 0,00 h 0,47 h 0,0 UV-I 0 W/m 5,0 km/h (1 Bft)
01.11.2013 19:00 10,5 C 9,0 C 93 % 1010,8 hPa 0,2 l/m 0,00 h 0,93 h 0,0 UV-I 0 W/m 8,6 km/h (2 Bft)
01.11.2013 20:00 9,7 C 8,2 C 94 % 1010,1 hPa 0,4 l/m 0,00 h 1,00 h 0,0 UV-I 0 W/m 9,7 km/h (2 Bft)
01.11.2013 21:00 9,0 C 7,8 C 96 % 1009,4 hPa 0,6 l/m 0,00 h 1,00 h 0,0 UV-I 0 W/m 10,4 km/h (2 Bft)
01.11.2013 22:00 8,6 C 7,2 C 97 % 1008,5 hPa 0,2 l/m 0,00 h 0,90 h 0,0 UV-I 0 W/m 10,8 km/h (2 Bft)
01.11.2013 23:00 8,3 C 7,2 C 97 % 1007,6 hPa 0,2 l/m 0,00 h 0,67 h 0,0 UV-I 0 W/m 11,5 km/h (2 Bft)
02.11.2013 00:00 8,2 C 7,2 C 97 % 1006,4 hPa 0,6 l/m 0,00 h 0,97 h 0,0 UV-I 0 W/m 11,7 km/h (2 Bft)
02.11.2013 01:00 8,2 C 7,2 C 98 % 1004,7 hPa 0,4 l/m 0,00 h 1,00 h 0,0 UV-I 0 W/m 11,5 km/h (2 Bft)
02.11.2013 02:00 8,2 C 7,2 C 98 % 1003,1 hPa 0,6 l/m 0,00 h 1,00 h 0,0 UV-I 0 W/m 17,8 km/h (3 Bft)
02.11.2013 03:00 8,4 C 7,2 C 98 % 1001,6 hPa 0,4 l/m 0,00 h 1,00 h 0,0 UV-I 0 W/m 19,0 km/h (3 Bft)
02.11.2013 04:00 8,6 C 7,6 C 98 % 1000,5 hPa 0,6 l/m 0,00 h 0,70 h 0,0 UV-I 0 W/m 16,0 km/h (3 Bft)
02.11.2013 05:00 8,9 C 7,8 C 98 % 1000,2 hPa 0,4 l/m 0,00 h 0,20 h 0,0 UV-I 0 W/m 5,7 km/h (1 Bft)
02.11.2013 06:00 9,3 C 8,2 C 99 % 1000,2 hPa 0,4 l/m 0,00 h 0,00 h 0,0 UV-I 0 W/m 1,2 km/h (1 Bft)
02.11.2013 07:00 9,8 C 8,6 C 99 % 1000,3 hPa 0,4 l/m 0,00 h 0,00 h 0,0 UV-I 8 W/m 1,8 km/h (1 Bft)
02.11.2013 08:00 10,1 C 9,0 C 99 % 1000,5 hPa 0,4 l/m 0,00 h 0,00 h 0,0 UV-I 17 W/m 2,1 km/h (1 Bft)
02.11.2013 09:00 10,7 C 9,5 C 98 % 1000,9 hPa 0,2 l/m 0,00 h 0,00 h 0,0 UV-I 41 W/m 4,9 km/h (1 Bft)
02.11.2013 10:00 11,2 C 10,1 C 98 % 1001,2 hPa 0,6 l/m 0,00 h 0,00 h 0,0 UV-I 40 W/m 0,7 km/h (0 Bft)
02.11.2013 11:00 11,7 C 10,9 C 98 % 1001,5 hPa 0,0 l/m 0,00 h 0,00 h 0,0 UV-I 86 W/m 0,0 km/h (0 Bft)
02.11.2013 12:00 12,6 C 11,7 C 98 % 1001,2 hPa 0,0 l/m 0,00 h 0,00 h 0,0 UV-I 82 W/m 1,0 km/h (0 Bft)
02.11.2013 13:00 12,8 C 11,8 C 98 % 1001,2 hPa 0,0 l/m 0,00 h 0,00 h 0,0 UV-I 89 W/m 1,1 km/h (1 Bft)
02.11.2013 14:00 13,0 C 11,9 C 98 % 1001,0 hPa 0,0 l/m 0,03 h 0,00 h 0,0 UV-I 83 W/m 1,0 km/h (0 Bft)
02.11.2013 15:00 13,2 C 11,8 C 98 % 1001,3 hPa 0,0 l/m 0,00 h 0,03 h 0,0 UV-I 26 W/m 1,4 km/h (1 Bft)
02.11.2013 16:00 13,0 C 11,7 C 98 % 1001,8 hPa 0,4 l/m 0,00 h 0,60 h 0,0 UV-I 13 W/m 6,2 km/h (2 Bft)
02.11.2013 17:00 12,1 C 10,5 C 98 % 1002,4 hPa 0,2 l/m 0,00 h 0,10 h 0,0 UV-I 0 W/m 7,3 km/h (2 Bft)
02.11.2013 18:00 11,6 C 10,0 C 98 % 1002,5 hPa 0,0 l/m 0,00 h 0,03 h 0,0 UV-I 0 W/m 4,9 km/h (1 Bft)
02.11.2013 19:00 11,4 C 10,0 C 98 % 1002,2 hPa 0,0 l/m 0,00 h 0,00 h 0,0 UV-I 0 W/m 6,8 km/h (2 Bft)
02.11.2013 20:00 11,8 C 10,0 C 97 % 1001,7 hPa 0,2 l/m 0,00 h 0,00 h 0,0 UV-I 0 W/m 12,5 km/h (3 Bft)
02.11.2013 21:00 12,2 C 10,1 C 93 % 1001,1 hPa 0,0 l/m 0,00 h 0,00 h 0,0 UV-I 0 W/m 12,7 km/h (3 Bft)
02.11.2013 22:00 12,5 C 10,7 C 91 % 1000,5 hPa 0,0 l/m 0,00 h 0,00 h 0,0 UV-I 0 W/m 12,4 km/h (3 Bft)
02.11.2013 23:00 13,0 C 11,0 C 89 % 999,7 hPa 0,6 l/m 0,00 h 0,27 h 0,0 UV-I 0 W/m 15,2 km/h (3 Bft)
03.11.2013 00:00 11,3 C 9,6 C 94 % 999,8 hPa 0,2 l/m 0,00 h 0,93 h 0,0 UV-I 0 W/m 11,4 km/h (2 Bft)
03.11.2013 01:00 10,2 C 8,5 C 95 % 999,5 hPa 0,2 l/m 0,00 h 0,33 h 0,0 UV-I 0 W/m 13,0 km/h (3 Bft)
03.11.2013 02:00 9,3 C 7,6 C 95 % 999,5 hPa 0,0 l/m 0,00 h 0,00 h 0,0 UV-I 0 W/m 13,3 km/h (3 Bft)
03.11.2013 03:00 9,3 C 7,4 C 93 % 999,4 hPa 0,0 l/m 0,00 h 0,00 h 0,0 UV-I 0 W/m 16,5 km/h (3 Bft)
03.11.2013 04:00 9,5 C 7,3 C 91 % 999,5 hPa 0,0 l/m 0,00 h 0,13 h 0,0 UV-I 0 W/m 18,1 km/h (3 Bft)
03.11.2013 05:00 9,3 C 7,2 C 90 % 999,6 hPa 0,2 l/m 0,00 h 0,97 h 0,0 UV-I 0 W/m 19,7 km/h (3 Bft)
03.11.2013 06:00 8,6 C 7,1 C 89 % 999,7 hPa 0,0 l/m 0,00 h 0,13 h 0,0 UV-I 0 W/m 17,2 km/h (3 Bft)
03.11.2013 07:00 8,4 C 7,2 C 87 % 1000,4 hPa 0,0 l/m 0,00 h 0,00 h 0,0 UV-I 8 W/m 15,4 km/h (3 Bft)
03.11.2013 08:00 8,5 C 7,2 C 88 % 1001,2 hPa 0,0 l/m 0,03 h 0,00 h 0,0 UV-I 43 W/m 18,4 km/h (3 Bft)
03.11.2013 09:00 8,8 C 7,7 C 85 % 1001,7 hPa 0,0 l/m 0,43 h 0,00 h 0,0 UV-I 142 W/m 19,0 km/h (3 Bft)
03.11.2013 10:00 9,0 C 7,9 C 83 % 1002,3 hPa 0,0 l/m 0,73 h 0,00 h 0,0 UV-I 213 W/m 22,8 km/h (4 Bft)
03.11.2013 11:00 9,5 C 8,4 C 80 % 1002,5 hPa 0,0 l/m 0,80 h 0,00 h 0,0 UV-I 282 W/m 21,7 km/h (4 Bft)
03.11.2013 12:00 10,0 C 8,8 C 78 % 1002,5 hPa 0,0 l/m 0,83 h 0,00 h 0,0 UV-I 312 W/m 23,2 km/h (4 Bft)
03.11.2013 13:00 10,3 C 9,0 C 77 % 1002,6 hPa 0,0 l/m 0,67 h 0,00 h 0,0 UV-I 256 W/m 26,9 km/h (4 Bft)
03.11.2013 14:00 9,7 C 8,5 C 78 % 1002,6 hPa 0,0 l/m 0,17 h 0,00 h 0,0 UV-I 135 W/m 30,9 km/h (5 Bft)
03.11.2013 15:00 9,3 C 8,0 C 80 % 1003,0 hPa 0,0 l/m 0,00 h 0,00 h 0,0 UV-I 70 W/m 27,7 km/h (4 Bft)
03.11.2013 16:00 9,1 C 7,6 C 81 % 1003,0 hPa 0,0 l/m 0,00 h 0,00 h 0,0 UV-I 27 W/m 26,9 km/h (4 Bft)
03.11.2013 17:00 8,4 C 6,8 C 84 % 1003,3 hPa 0,0 l/m 0,00 h 0,00 h 0,0 UV-I 5 W/m 21,3 km/h (4 Bft)
03.11.2013 18:00 8,5 C 7,1 C 83 % 1003,3 hPa 0,0 l/m 0,00 h 0,00 h 0,0 UV-I 0 W/m 22,0 km/h (4 Bft)
03.11.2013 19:00 8,6 C 6,6 C 84 % 1003,3 hPa 0,6 l/m 0,00 h 0,53 h 0,0 UV-I 0 W/m 25,6 km/h (4 Bft)
03.11.2013 20:00 7,3 C 5,6 C 92 % 1003,1 hPa 1,6 l/m 0,00 h 0,60 h 0,0 UV-I 0 W/m 13,1 km/h (3 Bft)
03.11.2013 21:00 7,3 C 5,6 C 93 % 1002,3 hPa 0,0 l/m 0,00 h 0,23 h 0,0 UV-I 0 W/m 18,0 km/h (3 Bft)
03.11.2013 22:00 8,0 C 5,8 C 88 % 1001,6 hPa 0,0 l/m 0,00 h 0,00 h 0,0 UV-I 0 W/m 16,6 km/h (3 Bft)
03.11.2013 23:00 8,0 C 6,1 C 86 % 1000,4 hPa 0,0 l/m 0,00 h 0,00 h 0,0 UV-I 0 W/m 15,6 km/h (3 Bft)
Min-Datum _ 31.10.13 31.10.13 31.10.13 28.10.13 - - - - - 28.10.13
_ Min-Zeit 06:32 04:30 13:34 09:38 - - - - - 18:20
Minimum _ 3,3 C 2,2 C 64 % 992,2 hPa - - - - - 0,0 km/h (0 Bft)
Max-Datum _ 28.10.13 28.10.13 31.10.13 30.10.13 28.10.13 28.10.13 28.10.13 28.10.13 29.10.13 28.10.13
_ Max-Zeit 14:12 14:06 08:32 23:58 01:06 09:06 00:00 11:10 11:50 11:22
Maximum _ 18,2 C 16,7 C 100 % 1025,5 hPa 1,8 l/m 0,03 h 0,03 h 1,0 UV-I 506 W/m 103,0 km/h
S (11 Bft)
Durchschnitt _ 10,5 C 9,0 C 86 % 1010,2 hPa #16,0 l/m #19:36 h #25:00 h 0,6 UV-I 125 W/m 12,8 km/h (3 Bft)
© 2013 W. Hausmann